»·PEaware :: N75X KSNA-KBUR

N75X :: KSNA-KBUR

FLIGHT INFORMATION

Flight Status: Arrived
Operator: Privately registered:
United States
More flights under this callsign
Pilot: Mike E. (26974)
Aircraft: CIRRUS SR-22 TURBO
(S22T)
More flights by this aircraft type
Origin: KSNA John Wayne-Orange Co
United States
Destination: KBUR Bob Hope-Burbank
United States
More flights between these airports :: More routes between these airports
Route: SLI V23 POPPR SMO125 SMO SMO311 SILEX
File this flight plan on PilotEdge
Remarks:
Altitude:
(Current/Filed)
4,000ft
Speed:
(Current/Filed)
150kts
Departed: 09-Jan-21 06:42 PM
Arrived: 09-Jan-21 07:12 PM
Distance/Time
Traveled:
0nm/0:30
Distance/Time
To Go:
Arrived

Flight Plot

Page will automatically refresh every two minutes.


Map Options




Map Legend


Flown Route
Filed Route
Departure Airport
Arrival Airport
Navaid (VOR, NDB)
Fix

Horizontal Profiles

Position Reports

Time Latitude Longitude Heading Altitude Ground
Speed
09-Jan-21 18:16 33.672476 -117.867197 210 59ft 0kts
09-Jan-21 18:17 33.672476 -117.867197 210 59ft 0kts
09-Jan-21 18:18 33.672476 -117.867197 210 59ft 0kts
09-Jan-21 18:19 33.672476 -117.867197 210 59ft 0kts
09-Jan-21 18:20 33.672476 -117.867197 210 59ft 0kts
09-Jan-21 18:21 33.672476 -117.867197 210 59ft 0kts
09-Jan-21 18:22 33.672476 -117.867197 210 59ft 0kts
09-Jan-21 18:23 33.672476 -117.867197 210 59ft 0kts
09-Jan-21 18:24 33.672476 -117.867197 210 59ft 0kts
09-Jan-21 18:25 33.672476 -117.867197 210 59ft 0kts
09-Jan-21 18:26 33.672476 -117.867197 210 59ft 0kts
09-Jan-21 18:27 33.672476 -117.867197 210 59ft 0kts
09-Jan-21 18:28 33.672476 -117.867197 210 59ft 0kts
09-Jan-21 18:29 33.672476 -117.867197 210 59ft 0kts
09-Jan-21 18:30 33.672476 -117.867197 210 59ft 0kts
09-Jan-21 18:31 33.672476 -117.867197 210 59ft 0kts
09-Jan-21 18:32 33.672476 -117.867197 210 59ft 0kts
09-Jan-21 18:33 33.672476 -117.867197 210 59ft 0kts
09-Jan-21 18:34 33.672911 -117.867564 50 59ft 10kts
09-Jan-21 18:35 33.673460 -117.867775 100 59ft 0kts
09-Jan-21 18:36 33.673460 -117.867775 100 59ft 0kts
09-Jan-21 18:37 33.673531 -117.867613 26 59ft 2kts
09-Jan-21 18:38 33.675553 -117.866189 27 59ft 9kts
09-Jan-21 18:39 33.678244 -117.864457 27 59ft 11kts
09-Jan-21 18:40 33.679955 -117.863603 295 59ft 0kts
09-Jan-21 18:41 33.674087 -117.867918 208 118ft 103kts
09-Jan-21 18:42 33.647570 -117.898913 234 974ft 153kts
09-Jan-21 18:43 33.620823 -117.940757 229 1628ft 161kts
09-Jan-21 18:44 33.592913 -117.983632 233 2414ft 164kts
09-Jan-21 18:45 33.565289 -118.027454 231 3202ft 166kts
09-Jan-21 18:46 33.551799 -118.076505 307 3800ft 171kts
09-Jan-21 18:47 33.595283 -118.099380 332 3998ft 173kts
09-Jan-21 18:49 33.636107 -118.128465 328 3999ft 169kts
09-Jan-21 18:50 33.675325 -118.158427 328 3999ft 166kts
09-Jan-21 18:51 33.714245 -118.188269 328 3999ft 166kts
09-Jan-21 18:52 33.753135 -118.218110 328 3999ft 166kts
09-Jan-21 18:53 33.792065 -118.247999 328 3999ft 165kts
09-Jan-21 18:54 33.830603 -118.278211 327 4000ft 164kts
09-Jan-21 18:55 33.865305 -118.313825 317 3999ft 164kts
09-Jan-21 18:56 33.898601 -118.351633 317 3999ft 164kts
09-Jan-21 18:57 33.931933 -118.389346 317 3999ft 164kts
09-Jan-21 18:58 33.968536 -118.420643 327 4002ft 163kts
09-Jan-21 18:59 34.005658 -118.451818 318 3999ft 164kts
09-Jan-21 19:00 34.041763 -118.485561 323 3999ft 164kts
09-Jan-21 19:01 34.078223 -118.518690 329 3996ft 164kts
09-Jan-21 19:02 34.116964 -118.547724 318 3998ft 165kts
09-Jan-21 19:03 34.147153 -118.589595 311 3981ft 165kts
09-Jan-21 19:03 34.171665 -118.621927 327 3988ft 150kts
09-Jan-21 19:04 34.199587 -118.596840 73 3171ft 132kts
09-Jan-21 19:06 34.200041 -118.547209 94 3029ft 127kts
09-Jan-21 19:07 34.200756 -118.507674 91 3046ft 113kts
09-Jan-21 19:07 34.199113 -118.476897 90 2391ft 108kts
09-Jan-21 19:08 34.197814 -118.443551 78 2086ft 97kts
09-Jan-21 19:09 34.198180 -118.411695 83 1723ft 90kts
09-Jan-21 19:10 34.198097 -118.381374 87 1026ft 89kts
09-Jan-21 19:11 34.197960 -118.358077 31 716ft 13kts
09-Jan-21 19:12 34.198985 -118.357968 351 718ft 9kts
09-Jan-21 19:13 34.199907 -118.359269 305 724ft 7kts
09-Jan-21 19:14 34.199991 -118.359416 166 725ft 0kts
09-Jan-21 19:25 33.672476 -117.867197 210 59ft 0kts

Navigation Log

Ident Type
Flight plan parsing failed, navigation log unavailable